Time;durP1;ratioP1;P1;durP2;ratioP2;P2;SDS_P1;SDS_P2;PMS_P1;PMS_P2;Temp;Humidity;BMP_temperature;BMP_pressure;BME280_temperature;BME280_humidity;BME280_pressure;Samples;Min_cycle;Max_cycle;Signal;HPM_P1;HPM_P2
2021/11/05 00:00:25;;;;;;;;;;;;;;;4.79;81.71;96759.06;30001;982;1880;-58
2021/11/05 00:00:56;;;;;;;;;;;;;;;4.81;81.65;96756.94;30001;982;1880;-58
2021/11/05 00:01:27;;;;;;;;;;;;;;;4.79;81.60;96759.88;30001;982;1880;-58
2021/11/05 00:01:58;;;;;;;;;;;;;;;4.82;81.26;96761.25;30001;982;1880;-57
2021/11/05 00:02:29;;;;;;;;;;;;;;;4.81;81.15;96759.63;30001;982;1880;-58
2021/11/05 00:03:02;;;;;;;;;;;;;;;4.80;81.29;96758.81;30001;983;1862;-59
2021/11/05 00:03:33;;;;;;;;;;;;;;;4.79;81.30;96761.75;30001;983;1875;-59
2021/11/05 00:04:05;;;;;;;;;;;;;;;4.76;81.56;96756.91;30001;983;1880;-58
2021/11/05 00:04:36;;;;;;;;;;;;;;;4.74;81.82;96767.09;30001;983;1880;-59
2021/11/05 00:05:07;;;;;;;;;;;;;;;4.72;81.82;96757.41;30001;983;1880;-59
2021/11/05 00:05:38;;;;;;;;;;;;;;;4.72;81.78;96760.09;30001;983;1880;-58
2021/11/05 00:06:09;;;;;;;;;;;;;;;4.80;81.41;96758.00;30001;983;1880;-58
2021/11/05 00:06:40;;;;;;;;;;;;;;;4.83;81.25;96765.53;30001;983;1880;-58
2021/11/05 00:07:11;;;;;;;;;;;;;;;4.82;81.37;96763.94;30001;982;1880;-58
2021/11/05 00:07:42;;;;;;;;;;;;;;;4.79;81.71;96765.25;30001;982;1880;-59
2021/11/05 00:08:14;;;;;;;;;;;;;;;4.78;81.50;96765.50;30001;982;1863;-58
2021/11/05 00:08:44;;;;;;;;;;;;;;;4.77;81.67;96777.34;30001;982;1876;-58
2021/11/05 00:09:16;;;;;;;;;;;;;;;4.75;81.70;96768.72;30001;982;1881;-58
2021/11/05 00:09:46;;;;;;;;;;;;;;;4.72;81.72;96768.16;30001;982;1863;-58
2021/11/05 00:10:18;;;;;;;;;;;;;;;4.70;82.07;96767.59;30001;983;1875;-59
2021/11/05 00:10:50;;;;;;;;;;;;;;;4.69;82.06;96768.69;30001;983;1880;-58
2021/11/05 00:11:21;;;;;;;;;;;;;;;4.69;82.04;96766.00;30001;983;1880;-58
2021/11/05 00:11:53;;;;;;;;;;;;;;;4.69;82.23;96766.00;30001;983;1880;-58
2021/11/05 00:12:24;;;;;;;;;;;;;;;4.70;82.15;96767.59;30001;983;1880;-59
2021/11/05 00:12:55;;;;;;;;;;;;;;;4.74;82.19;96777.84;30001;983;1880;-58
2021/11/05 00:13:26;;;;;;;;;;;;;;;4.75;81.75;96763.34;30001;983;1862;-59
2021/11/05 00:13:57;;;;;;;;;;;;;;;4.78;81.60;96773.56;30001;983;1876;-58
2021/11/05 00:14:28;;;;;;;;;;;;;;;4.77;81.56;96769.28;30001;982;1880;-57
2021/11/05 00:14:58;;;;;;;;;;;;;;;4.76;81.66;96775.72;30001;982;1880;-58
2021/11/05 00:15:29;;;;;;;;;;;;;;;4.75;81.73;96771.41;30001;982;1880;-57
2021/11/05 00:16:00;;;;;;;;;;;;;;;4.73;81.93;96768.97;30001;982;1880;-58
2021/11/05 00:16:31;;;;;;;;;;;;;;;4.71;81.95;96771.91;30001;982;1880;-58
2021/11/05 00:17:03;;;;;;;;;;;;;;;4.71;82.20;96766.53;30001;982;1881;-58
2021/11/05 00:17:33;;;;;;;;;;;;;;;4.72;82.07;96767.34;30001;982;1881;-59
2021/11/05 00:18:04;;;;;;;;;;;;;;;4.72;82.35;96775.41;30001;983;1880;-58
2021/11/05 00:18:37;;;;;;;;;;;;;;;4.73;82.27;96774.34;30001;983;1862;-58
2021/11/05 00:19:08;;;;;;;;;;;;;;;4.72;82.18;96778.91;30001;983;1858;-59
2021/11/05 00:19:39;;;;;;;;;;;;;;;4.72;82.08;96770.84;30001;983;1880;-58
2021/11/05 00:20:10;;;;;;;;;;;;;;;4.72;82.29;96776.22;30001;983;1880;-59
2021/11/05 00:20:41;;;;;;;;;;;;;;;4.76;82.27;96775.72;30001;983;1880;-58
2021/11/05 00:21:12;;;;;;;;;;;;;;;4.75;82.05;96774.09;30001;983;1880;-57
2021/11/05 00:21:43;;;;;;;;;;;;;;;4.72;82.37;96776.22;30001;983;1880;-58
2021/11/05 00:22:14;;;;;;;;;;;;;;;4.70;82.31;96772.97;30001;982;1880;-58
2021/11/05 00:22:44;;;;;;;;;;;;;;;4.69;82.51;96771.38;30001;982;1800;-59
2021/11/05 00:23:16;;;;;;;;;;;;;;;4.68;82.46;96775.13;30001;982;1880;-58
2021/11/05 00:23:47;;;;;;;;;;;;;;;4.67;82.51;96776.19;30001;982;1880;-58
2021/11/05 00:24:24;;;;;;;;;;;;;;;4.69;82.62;96779.44;30001;972;1884;-57
2021/11/05 00:24:55;;;;;;;;;;;;;;;4.80;82.12;96782.19;30001;983;1875;-57
2021/11/05 00:25:26;;;;;;;;;;;;;;;4.82;81.70;96775.50;30001;983;1880;-57
2021/11/05 00:25:56;;;;;;;;;;;;;;;4.84;81.52;96778.72;30001;983;1880;-58
2021/11/05 00:26:28;;;;;;;;;;;;;;;4.84;81.68;96783.31;30001;983;1880;-57
2021/11/05 00:26:59;;;;;;;;;;;;;;;4.83;81.55;96777.13;30001;983;1873;-59
2021/11/05 00:27:29;;;;;;;;;;;;;;;4.81;81.84;96783.81;30001;983;1880;-57
2021/11/05 00:28:02;;;;;;;;;;;;;;;4.78;82.13;96778.94;30001;983;1880;-57
2021/11/05 00:28:33;;;;;;;;;;;;;;;4.77;82.38;96780.03;30001;983;1880;-58
2021/11/05 00:29:04;;;;;;;;;;;;;;;4.75;82.04;96774.09;30001;983;1863;-58
2021/11/05 00:29:35;;;;;;;;;;;;;;;4.73;82.20;96782.41;30001;982;1876;-58
2021/11/05 00:30:06;;;;;;;;;;;;;;;4.71;82.23;96777.28;30001;982;1880;-58
2021/11/05 00:30:37;;;;;;;;;;;;;;;4.69;82.47;96768.69;30001;982;1880;-58
2021/11/05 00:31:08;;;;;;;;;;;;;;;4.75;82.37;96777.59;30001;982;1880;-57
2021/11/05 00:31:39;;;;;;;;;;;;;;;4.78;82.10;96779.75;30001;982;1880;-57
2021/11/05 00:32:10;;;;;;;;;;;;;;;4.77;81.95;96780.81;30001;983;1880;-57
2021/11/05 00:32:42;;;;;;;;;;;;;;;4.77;81.92;96777.34;30001;983;1880;-58
2021/11/05 00:33:13;;;;;;;;;;;;;;;4.76;81.89;96781.09;30001;983;1880;-58
2021/11/05 00:33:44;;;;;;;;;;;;;;;4.74;81.88;96783.22;30001;983;1880;-58
2021/11/05 00:34:17;;;;;;;;;;;;;;;4.69;81.95;96782.13;30001;983;1862;-57
2021/11/05 00:34:48;;;;;;;;;;;;;;;4.68;82.26;96769.75;30001;983;1875;-57
2021/11/05 00:35:19;;;;;;;;;;;;;;;4.67;82.10;96784.25;30001;983;1880;-58
2021/11/05 00:35:50;;;;;;;;;;;;;;;4.66;82.28;96777.25;30001;983;1862;-58
2021/11/05 00:36:21;;;;;;;;;;;;;;;4.65;82.23;96781.00;30001;983;1876;-57
2021/11/05 00:36:52;;;;;;;;;;;;;;;4.64;82.63;96774.00;30001;983;1880;-58
2021/11/05 00:37:23;;;;;;;;;;;;;;;4.63;82.29;96777.75;30001;982;1880;-58
2021/11/05 00:37:54;;;;;;;;;;;;;;;4.61;82.98;96779.09;30001;982;1880;-57
2021/11/05 00:38:25;;;;;;;;;;;;;;;4.60;82.99;96780.97;30001;982;1880;-58
2021/11/05 00:38:55;;;;;;;;;;;;;;;4.60;83.08;96778.28;30001;982;1880;-58
2021/11/05 00:39:26;;;;;;;;;;;;;;;4.63;83.02;96777.75;30001;982;1880;-59
2021/11/05 00:39:57;;;;;;;;;;;;;;;4.66;82.80;96782.63;30001;983;1880;-57
2021/11/05 00:40:31;;;;;;;;;;;;;;;4.69;82.58;96786.69;30001;983;1880;-57
2021/11/05 00:41:02;;;;;;;;;;;;;;;4.68;82.54;96785.88;30001;983;1862;-57
2021/11/05 00:41:32;;;;;;;;;;;;;;;4.68;82.57;96788.56;30001;983;1875;-58
2021/11/05 00:42:04;;;;;;;;;;;;;;;4.68;82.85;96779.69;30001;983;1880;-58
2021/11/05 00:42:35;;;;;;;;;;;;;;;4.67;82.78;96784.25;30001;983;1880;-57
2021/11/05 00:43:06;;;;;;;;;;;;;;;4.66;83.08;96782.63;30001;983;1880;-58
2021/11/05 00:43:37;;;;;;;;;;;;;;;4.67;83.01;96783.44;30001;983;1862;-58
2021/11/05 00:44:08;;;;;;;;;;;;;;;4.65;83.03;96780.19;30001;983;1875;-58
2021/11/05 00:44:38;;;;;;;;;;;;;;;4.64;82.63;96779.38;30001;982;1785;-57
2021/11/05 00:45:10;;;;;;;;;;;;;;;4.64;82.99;96784.75;30001;982;1880;-58
2021/11/05 00:45:41;;;;;;;;;;;;;;;4.64;82.82;96779.38;30001;982;1880;-58
2021/11/05 00:46:12;;;;;;;;;;;;;;;4.66;83.28;96781.81;30001;982;1880;-57
2021/11/05 00:46:42;;;;;;;;;;;;;;;4.67;83.00;96780.75;30001;982;1881;-58
2021/11/05 00:47:15;;;;;;;;;;;;;;;4.69;83.07;96776.75;30001;983;1880;-58
2021/11/05 00:47:46;;;;;;;;;;;;;;;4.70;82.83;96783.72;30001;983;1880;-58
2021/11/05 00:48:16;;;;;;;;;;;;;;;4.73;82.70;96782.41;30001;983;1862;-58
2021/11/05 00:48:47;;;;;;;;;;;;;;;4.73;82.62;96787.78;30001;983;1875;-57
2021/11/05 00:49:19;;;;;;;;;;;;;;;4.76;82.71;96784.59;30001;983;1880;-58
2021/11/05 00:49:50;;;;;;;;;;;;;;;4.74;82.89;96788.59;30001;983;1880;-57
2021/11/05 00:50:21;;;;;;;;;;;;;;;4.72;82.91;96786.16;30001;983;1880;-58
2021/11/05 00:50:52;;;;;;;;;;;;;;;4.71;82.66;96784.53;30001;983;1880;-58
2021/11/05 00:51:23;;;;;;;;;;;;;;;4.71;82.91;96789.91;30001;983;1794;-57
2021/11/05 00:51:54;;;;;;;;;;;;;;;4.68;82.66;96791.25;30001;983;1880;-57
2021/11/05 00:52:25;;;;;;;;;;;;;;;4.68;82.71;96790.44;30001;982;1880;-58
2021/11/05 00:52:56;;;;;;;;;;;;;;;4.67;82.79;96789.63;30001;982;1880;-58
2021/11/05 00:53:27;;;;;;;;;;;;;;;4.67;82.68;96795.00;30001;982;1863;-57
2021/11/05 00:53:58;;;;;;;;;;;;;;;4.67;82.71;96789.63;30001;982;1876;-58
2021/11/05 00:54:29;;;;;;;;;;;;;;;4.66;82.67;96788.00;30001;982;1880;-58
2021/11/05 00:55:00;;;;;;;;;;;;;;;4.66;82.58;96793.38;30001;983;1880;-57
2021/11/05 00:55:30;;;;;;;;;;;;;;;4.66;82.63;96795.25;30001;983;1880;-58
2021/11/05 00:56:01;;;;;;;;;;;;;;;4.65;82.70;96790.94;30001;983;1880;-57
2021/11/05 00:56:32;;;;;;;;;;;;;;;4.64;82.70;96800.87;30001;983;1880;-58
2021/11/05 00:57:04;;;;;;;;;;;;;;;4.64;82.69;96795.50;30001;983;1880;-59
2021/11/05 00:57:35;;;;;;;;;;;;;;;4.64;82.77;96794.69;30001;983;1880;-57
2021/11/05 00:58:06;;;;;;;;;;;;;;;4.64;82.65;96800.87;30001;983;1880;-58
2021/11/05 00:58:36;;;;;;;;;;;;;;;4.63;82.81;96799.25;30001;983;1862;-57
2021/11/05 00:59:07;;;;;;;;;;;;;;;4.63;82.73;96799.25;30001;982;1876;-58
2021/11/05 00:59:39;;;;;;;;;;;;;;;4.62;82.76;96794.94;30001;982;1880;-57
2021/11/05 01:00:12;;;;;;;;;;;;;;;4.63;82.95;96796.56;30001;982;1880;-58
2021/11/05 01:00:43;;;;;;;;;;;;;;;4.62;82.96;96792.25;30001;982;1880;-57
2021/11/05 01:01:14;;;;;;;;;;;;;;;4.63;82.94;96801.13;30001;982;1880;-58
2021/11/05 01:01:45;;;;;;;;;;;;;;;4.65;83.16;96802.50;30001;982;1880;-58
2021/11/05 01:02:16;;;;;;;;;;;;;;;4.66;83.05;96806.00;30001;983;1880;-58
2021/11/05 01:02:48;;;;;;;;;;;;;;;4.66;82.92;96801.44;30001;983;1879;-58
2021/11/05 01:03:18;;;;;;;;;;;;;;;4.68;83.23;96802.00;30001;983;1880;-57
2021/11/05 01:03:49;;;;;;;;;;;;;;;4.69;82.86;96803.62;30001;983;1862;-59
2021/11/05 01:04:20;;;;;;;;;;;;;;;4.69;82.96;96809.00;30001;983;1875;-58
2021/11/05 01:04:51;;;;;;;;;;;;;;;4.68;82.89;96801.19;30001;984;1880;-58
2021/11/05 01:05:21;;;;;;;;;;;;;;;4.68;82.75;96799.31;30001;983;1880;-58
2021/11/05 01:05:52;;;;;;;;;;;;;;;4.67;82.75;96805.75;30001;983;1880;-58
2021/11/05 01:06:23;;;;;;;;;;;;;;;4.67;83.09;96805.75;30001;985;1863;-57
2021/11/05 01:06:54;;;;;;;;;;;;;;;4.65;83.15;96802.50;30001;982;1876;-58
2021/11/05 01:07:24;;;;;;;;;;;;;;;4.64;83.11;96795.50;30001;982;1880;-58
2021/11/05 01:07:55;;;;;;;;;;;;;;;4.64;83.25;96800.06;30001;982;1880;-57
2021/11/05 01:08:27;;;;;;;;;;;;;;;4.63;83.18;96799.25;30001;982;1863;-59
2021/11/05 01:08:58;;;;;;;;;;;;;;;4.63;83.68;96799.25;30001;982;1876;-57
2021/11/05 01:09:29;;;;;;;;;;;;;;;4.63;83.32;96804.62;30001;982;1880;-58
2021/11/05 01:10:00;;;;;;;;;;;;;;;4.62;83.38;96797.63;30001;983;1880;-58
2021/11/05 01:10:32;;;;;;;;;;;;;;;4.63;83.43;96799.25;30001;983;1880;-57
2021/11/05 01:11:03;;;;;;;;;;;;;;;4.63;83.29;96801.94;30001;983;1880;-58
2021/11/05 01:11:34;;;;;;;;;;;;;;;4.63;83.32;96801.94;30001;983;1862;-57
2021/11/05 01:12:05;;;;;;;;;;;;;;;4.63;83.34;96799.25;30001;983;1875;-58
2021/11/05 01:12:36;;;;;;;;;;;;;;;4.63;83.33;96799.25;30001;983;1880;-58
2021/11/05 01:13:07;;;;;;;;;;;;;;;4.63;83.83;96799.25;30001;983;1880;-57
2021/11/05 01:13:38;;;;;;;;;;;;;;;4.64;83.65;96800.87;30001;983;1880;-57
2021/11/05 01:14:09;;;;;;;;;;;;;;;4.63;83.62;96799.25;30001;982;1880;-58
2021/11/05 01:14:40;;;;;;;;;;;;;;;4.63;83.67;96799.25;30001;982;1880;-57
2021/11/05 01:15:12;;;;;;;;;;;;;;;4.64;83.56;96803.56;30001;982;1863;-58
2021/11/05 01:15:43;;;;;;;;;;;;;;;4.68;83.62;96802.00;30001;982;1876;-57
2021/11/05 01:16:14;;;;;;;;;;;;;;;4.69;83.33;96803.62;30001;982;1863;-57
2021/11/05 01:16:45;;;;;;;;;;;;;;;4.74;83.14;96804.72;30001;982;1859;-59
2021/11/05 01:17:16;;;;;;;;;;;;;;;4.73;82.91;96803.91;30001;982;1880;-59
2021/11/05 01:17:47;;;;;;;;;;;;;;;4.70;82.47;96807.13;30001;983;1880;-58
2021/11/05 01:18:21;;;;;;;;;;;;;;;4.65;82.62;96802.50;30001;983;1880;-58
2021/11/05 01:18:52;;;;;;;;;;;;;;;4.65;82.55;96804.38;30001;964;1866;-58
2021/11/05 01:19:23;;;;;;;;;;;;;;;4.66;82.88;96804.12;30001;983;1880;-58
2021/11/05 01:19:53;;;;;;;;;;;;;;;4.66;82.81;96812.19;30001;983;1880;-58
2021/11/05 01:20:25;;;;;;;;;;;;;;;4.69;82.88;96802.81;30001;983;1880;-58
2021/11/05 01:20:56;;;;;;;;;;;;;;;4.69;82.71;96814.37;30001;983;1880;-58
2021/11/05 01:21:26;;;;;;;;;;;;;;;4.76;82.61;96807.97;30001;983;1880;-57
2021/11/05 01:21:57;;;;;;;;;;;;;;;4.76;82.42;96806.09;30001;982;1863;-57
2021/11/05 01:22:28;;;;;;;;;;;;;;;4.76;82.67;96807.97;30001;982;1876;-57
2021/11/05 01:22:59;;;;;;;;;;;;;;;4.74;83.08;96810.09;30001;982;1880;-58
2021/11/05 01:23:30;;;;;;;;;;;;;;;4.72;83.19;96810.34;30001;982;1880;-57
2021/11/05 01:24:01;;;;;;;;;;;;;;;4.71;83.28;96809.53;30001;982;1880;-57
2021/11/05 01:24:32;;;;;;;;;;;;;;;4.72;83.63;96813.84;30001;982;1881;-58
2021/11/05 01:25:03;;;;;;;;;;;;;;;4.71;83.48;96806.84;30001;985;1879;-58
2021/11/05 01:25:35;;;;;;;;;;;;;;;4.72;83.49;96813.84;30001;983;1880;-58
2021/11/05 01:26:05;;;;;;;;;;;;;;;4.68;83.08;96812.75;30001;983;1880;-58
2021/11/05 01:26:36;;;;;;;;;;;;;;;4.68;83.26;96812.75;30001;986;1854;-59
2021/11/05 01:27:07;;;;;;;;;;;;;;;4.68;83.58;96812.75;30001;983;1871;-59
2021/11/05 01:27:38;;;;;;;;;;;;;;;4.68;83.88;96810.06;30001;983;1858;-56
2021/11/05 01:28:09;;;;;;;;;;;;;;;4.70;83.98;96815.19;30001;983;1871;-57
2021/11/05 01:28:40;;;;;;;;;;;;;;;4.71;83.71;96814.91;30001;983;1876;-58
2021/11/05 01:29:11;;;;;;;;;;;;;;;4.70;83.47;96816.00;30001;982;1876;-58
2021/11/05 01:29:41;;;;;;;;;;;;;;;4.71;83.33;96817.59;30001;982;1876;-57
2021/11/05 01:30:13;;;;;;;;;;;;;;;4.71;83.88;96817.59;30001;985;1876;-57
2021/11/05 01:30:44;;;;;;;;;;;;;;;4.72;83.71;96818.41;30001;982;1876;-57
2021/11/05 01:31:17;;;;;;;;;;;;;;;4.70;83.88;96816.00;30001;982;1859;-57
2021/11/05 01:31:50;;;;;;;;;;;;;;;4.71;83.76;96816.78;30001;983;1871;-57
2021/11/05 01:32:21;;;;;;;;;;;;;;;4.71;83.88;96817.59;30001;983;1875;-57
2021/11/05 01:32:52;;;;;;;;;;;;;;;4.73;83.68;96820.03;30001;983;1875;-60
2021/11/05 01:33:23;;;;;;;;;;;;;;;4.71;83.40;96816.78;30001;973;1879;-58
2021/11/05 01:33:54;;;;;;;;;;;;;;;4.70;83.46;96818.66;30001;983;1871;-58
2021/11/05 01:34:29;;;;;;;;;;;;;;;4.69;83.39;96818.94;30001;983;1875;-58
2021/11/05 01:35:00;;;;;;;;;;;;;;;4.67;83.45;96819.19;30001;983;1858;-59
2021/11/05 01:35:31;;;;;;;;;;;;;;;4.67;83.75;96819.19;30001;983;1871;-58
2021/11/05 01:36:02;;;;;;;;;;;;;;;4.68;83.51;96818.13;30001;983;1876;-58
2021/11/05 01:36:33;;;;;;;;;;;;;;;4.67;83.75;96813.81;30001;983;1876;-57
2021/11/05 01:37:05;;;;;;;;;;;;;;;4.67;83.76;96819.19;30001;982;1876;-58
2021/11/05 01:37:37;;;;;;;;;;;;;;;4.67;83.75;96815.69;30001;982;1876;-58
2021/11/05 01:38:09;;;;;;;;;;;;;;;4.68;83.81;96820.81;30001;982;1876;-57
2021/11/05 01:38:40;;;;;;;;;;;;;;;4.68;83.90;96818.13;30001;982;1876;-57
2021/11/05 01:39:11;;;;;;;;;;;;;;;4.69;84.06;96818.94;30001;983;1875;-58
2021/11/05 01:39:42;;;;;;;;;;;;;;;4.70;83.79;96821.38;30001;983;1876;-58
2021/11/05 01:40:14;;;;;;;;;;;;;;;4.70;83.83;96821.38;30001;983;1858;-58
2021/11/05 01:40:45;;;;;;;;;;;;;;;4.70;83.95;96821.38;30001;983;1853;-57
2021/11/05 01:41:16;;;;;;;;;;;;;;;4.70;83.86;96821.38;30001;983;1875;-58
2021/11/05 01:41:47;;;;;;;;;;;;;;;4.71;83.82;96822.97;30001;983;1859;-57
2021/11/05 01:42:18;;;;;;;;;;;;;;;4.71;83.59;96820.28;30001;983;1876;-58
2021/11/05 01:42:49;;;;;;;;;;;;;;;4.70;83.25;96821.38;30001;983;1858;-59
2021/11/05 01:43:20;;;;;;;;;;;;;;;4.70;83.38;96821.38;30001;983;1854;-57
2021/11/05 01:43:52;;;;;;;;;;;;;;;4.69;83.46;96817.06;30001;983;1876;-57
2021/11/05 01:44:23;;;;;;;;;;;;;;;4.69;83.24;96825.13;30001;982;1876;-58
2021/11/05 01:44:54;;;;;;;;;;;;;;;4.69;83.55;96821.63;30001;982;1876;-58
2021/11/05 01:45:25;;;;;;;;;;;;;;;4.68;83.55;96823.50;30001;982;1858;-58
2021/11/05 01:45:56;;;;;;;;;;;;;;;4.68;83.49;96823.50;30001;982;1872;-58
2021/11/05 01:46:27;;;;;;;;;;;;;;;4.68;83.56;96820.81;30001;982;1876;-58
2021/11/05 01:47:00;;;;;;;;;;;;;;;4.68;83.68;96822.69;30001;983;1875;-58
2021/11/05 01:47:31;;;;;;;;;;;;;;;4.73;83.34;96822.72;30001;962;1896;-58
2021/11/05 01:48:02;;;;;;;;;;;;;;;4.74;83.06;96823.53;30001;983;1875;-58
2021/11/05 01:48:33;;;;;;;;;;;;;;;4.73;83.18;96820.03;30001;983;1875;-58
2021/11/05 01:49:04;;;;;;;;;;;;;;;4.74;83.17;96831.59;30001;983;1875;-58
2021/11/05 01:49:34;;;;;;;;;;;;;;;4.70;83.45;96824.06;30001;983;1876;-58
2021/11/05 01:50:07;;;;;;;;;;;;;;;4.68;83.61;96828.88;30001;971;1895;-57
2021/11/05 01:50:39;;;;;;;;;;;;;;;4.66;83.33;96825.63;30001;983;1858;-58
2021/11/05 01:51:10;;;;;;;;;;;;;;;4.65;83.36;96824.00;30001;983;1871;-57
2021/11/05 01:51:40;;;;;;;;;;;;;;;4.67;83.48;96827.25;30001;983;1876;-58
2021/11/05 01:52:12;;;;;;;;;;;;;;;4.67;83.50;96824.56;30001;982;1858;-57
2021/11/05 01:52:44;;;;;;;;;;;;;;;4.67;83.36;96827.25;30001;982;1872;-58
2021/11/05 01:53:15;;;;;;;;;;;;;;;4.66;83.58;96828.31;30001;982;1876;-57
2021/11/05 01:53:46;;;;;;;;;;;;;;;4.64;83.95;96830.44;30001;982;1876;-59
2021/11/05 01:54:18;;;;;;;;;;;;;;;4.62;83.87;96832.56;30001;983;1875;-58
2021/11/05 01:54:50;;;;;;;;;;;;;;;4.61;84.03;96830.16;30001;983;1875;-57
2021/11/05 01:55:21;;;;;;;;;;;;;;;4.60;83.89;96826.66;30001;983;1875;-59
2021/11/05 01:55:52;;;;;;;;;;;;;;;4.61;83.99;96825.56;30001;983;1875;-58
2021/11/05 01:56:22;;;;;;;;;;;;;;;4.60;84.19;96832.03;30001;983;1875;-57
2021/11/05 01:56:53;;;;;;;;;;;;;;;4.60;84.04;96832.03;30001;983;1858;-59
2021/11/05 01:57:24;;;;;;;;;;;;;;;4.60;84.48;96832.03;30001;983;1871;-57
2021/11/05 01:57:55;;;;;;;;;;;;;;;4.60;84.81;96832.03;30001;983;1876;-57
2021/11/05 01:58:26;;;;;;;;;;;;;;;4.60;84.69;96826.66;30001;983;1876;-58
2021/11/05 01:58:57;;;;;;;;;;;;;;;4.60;84.80;96829.34;30001;983;1876;-58
2021/11/05 01:59:29;;;;;;;;;;;;;;;4.61;84.98;96827.47;30001;982;1858;-58
2021/11/05 02:00:00;;;;;;;;;;;;;;;4.60;84.70;96832.03;30001;982;1871;-59
2021/11/05 02:00:31;;;;;;;;;;;;;;;4.60;85.15;96833.91;30001;982;1876;-59
2021/11/05 02:01:02;;;;;;;;;;;;;;;4.59;85.15;96835.78;30001;982;1876;-59
2021/11/05 02:01:34;;;;;;;;;;;;;;;4.59;84.93;96834.97;30001;982;1876;-59
2021/11/05 02:02:07;;;;;;;;;;;;;;;4.58;84.79;96839.53;30001;983;1875;-59
2021/11/05 02:02:38;;;;;;;;;;;;;;;4.56;85.09;96836.28;30001;983;1875;-60
2021/11/05 02:03:09;;;;;;;;;;;;;;;4.56;85.30;96836.28;30001;983;1858;-59
2021/11/05 02:03:41;;;;;;;;;;;;;;;4.55;85.45;96834.66;30001;983;1871;-59
2021/11/05 02:04:12;;;;;;;;;;;;;;;4.54;85.68;96833.03;30001;983;1875;-60
2021/11/05 02:04:43;;;;;;;;;;;;;;;4.54;85.63;96833.03;30001;983;1874;-59
2021/11/05 02:05:14;;;;;;;;;;;;;;;4.55;85.46;96829.28;30001;983;1875;-59
2021/11/05 02:05:46;;;;;;;;;;;;;;;4.55;85.39;96831.16;30001;983;1875;-60
2021/11/05 02:06:21;;;;;;;;;;;;;;;4.55;85.53;96829.28;30001;982;1876;-60
2021/11/05 02:06:52;;;;;;;;;;;;;;;4.57;85.43;96832.53;30001;982;1858;-59
2021/11/05 02:07:26;;;;;;;;;;;;;;;4.55;85.49;96840.03;30001;982;1854;-60
2021/11/05 02:07:57;;;;;;;;;;;;;;;4.54;85.73;96833.03;30001;982;1876;-60
2021/11/05 02:08:29;;;;;;;;;;;;;;;4.54;85.63;96833.03;30001;982;1876;-61
2021/11/05 02:09:00;;;;;;;;;;;;;;;4.53;86.02;96833.28;30001;982;1876;-59
2021/11/05 02:09:34;;;;;;;;;;;;;;;4.52;85.99;96832.47;30001;983;1875;-60
2021/11/05 02:10:06;;;;;;;;;;;;;;;4.50;85.95;96826.59;30001;983;1875;-59
2021/11/05 02:10:37;;;;;;;;;;;;;;;4.51;85.79;96838.91;30001;983;1858;-60
2021/11/05 02:11:09;;;;;;;;;;;;;;;4.49;85.92;96830.34;30001;983;1871;-59
2021/11/05 02:11:39;;;;;;;;;;;;;;;4.50;85.73;96831.97;30001;983;1875;-61
2021/11/05 02:12:11;;;;;;;;;;;;;;;4.50;85.85;96831.97;30001;983;1876;-60
2021/11/05 02:12:45;;;;;;;;;;;;;;;4.51;85.73;96833.53;30001;983;1858;-60
2021/11/05 02:13:17;;;;;;;;;;;;;;;4.51;85.83;96838.91;30001;983;1871;-60
2021/11/05 02:13:48;;;;;;;;;;;;;;;4.51;85.73;96836.22;30001;982;1876;-61
2021/11/05 02:14:20;;;;;;;;;;;;;;;4.51;86.08;96838.91;30001;982;1876;-60
2021/11/05 02:14:51;;;;;;;;;;;;;;;4.50;86.19;96837.34;30001;982;1876;-61
2021/11/05 02:15:23;;;;;;;;;;;;;;;4.50;86.26;96837.34;30001;982;1876;-60
2021/11/05 02:15:54;;;;;;;;;;;;;;;4.47;86.25;96832.47;30001;982;1859;-60
2021/11/05 02:16:26;;;;;;;;;;;;;;;4.46;86.57;96836.22;30001;982;1872;-61
2021/11/05 02:16:58;;;;;;;;;;;;;;;4.47;86.28;96835.16;30001;983;1875;-60
2021/11/05 02:17:28;;;;;;;;;;;;;;;4.44;86.42;96843.72;30001;983;1875;-60
2021/11/05 02:17:59;;;;;;;;;;;;;;;4.42;86.57;96835.09;30001;983;1875;-60
2021/11/05 02:18:30;;;;;;;;;;;;;;;4.44;86.44;96838.34;30001;983;1875;-60
2021/11/05 02:19:02;;;;;;;;;;;;;;;4.42;86.28;96837.78;30001;983;1875;-61
2021/11/05 02:19:33;;;;;;;;;;;;;;;4.44;86.55;96842.91;30001;983;1876;-61
2021/11/05 02:20:06;;;;;;;;;;;;;;;4.44;86.75;96838.34;30001;983;1876;-61
2021/11/05 02:20:37;;;;;;;;;;;;;;;4.47;86.50;96843.22;30001;983;1876;-61
2021/11/05 02:21:10;;;;;;;;;;;;;;;4.48;86.49;96834.09;30001;982;1858;-61
2021/11/05 02:21:42;;;;;;;;;;;;;;;4.47;86.34;96835.16;30001;982;1854;-61
2021/11/05 02:22:13;;;;;;;;;;;;;;;4.48;86.62;96834.09;30001;982;1876;-60
2021/11/05 02:22:44;;;;;;;;;;;;;;;4.47;86.19;96837.84;30001;982;1876;-60
2021/11/05 02:23:15;;;;;;;;;;;;;;;4.48;86.46;96838.66;30001;982;1876;-60
2021/11/05 02:23:46;;;;;;;;;;;;;;;4.48;86.42;96834.09;30001;982;1876;-61
2021/11/05 02:24:17;;;;;;;;;;;;;;;4.48;86.61;96842.16;30001;982;1876;-60
2021/11/05 02:24:48;;;;;;;;;;;;;;;4.48;86.63;96839.47;30001;983;1875;-61
2021/11/05 02:25:19;;;;;;;;;;;;;;;4.47;86.69;96837.84;30001;983;1875;-60
2021/11/05 02:25:50;;;;;;;;;;;;;;;4.48;86.56;96836.78;30001;983;1875;-60
2021/11/05 02:26:21;;;;;;;;;;;;;;;4.49;86.35;96840.28;30001;983;1858;-60
2021/11/05 02:26:53;;;;;;;;;;;;;;;4.48;86.74;96844.84;30001;983;1871;-60
2021/11/05 02:27:28;;;;;;;;;;;;;;;4.47;86.80;96843.22;30001;983;1876;-60
2021/11/05 02:27:59;;;;;;;;;;;;;;;4.47;86.75;96835.16;30001;983;1876;-61
2021/11/05 02:28:35;;;;;;;;;;;;;;;4.46;86.75;96852.34;30001;983;1876;-60
2021/11/05 02:29:06;;;;;;;;;;;;;;;4.46;86.59;96846.97;30001;982;1876;-61
2021/11/05 02:29:37;;;;;;;;;;;;;;;4.46;86.67;96844.28;30001;982;1876;-60
2021/11/05 02:30:09;;;;;;;;;;;;;;;4.47;86.72;96843.22;30001;982;1876;-61
2021/11/05 02:30:40;;;;;;;;;;;;;;;4.47;86.89;96845.91;30001;982;1876;-60
2021/11/05 02:31:10;;;;;;;;;;;;;;;4.46;87.31;96846.97;30001;982;1859;-61
2021/11/05 02:31:41;;;;;;;;;;;;;;;4.46;86.89;96844.28;30001;982;1872;-60
2021/11/05 02:32:12;;;;;;;;;;;;;;;4.46;87.10;96844.28;30001;983;1875;-59
2021/11/05 02:32:43;;;;;;;;;;;;;;;4.45;86.99;96845.34;30001;983;1875;-60
2021/11/05 02:33:14;;;;;;;;;;;;;;;4.47;nan;96845.09;30001;983;1875;-60
2021/11/05 02:33:45;;;;;;;;;;;;;;;4.47;86.70;96845.09;30001;983;1876;-60
2021/11/05 02:34:16;;;;;;;;;;;;;;;4.48;86.60;96844.03;30001;983;1876;-59
2021/11/05 02:34:48;;;;;;;;;;;;;;;4.47;86.49;96843.22;30001;983;1876;-61
2021/11/05 02:35:18;;;;;;;;;;;;;;;4.46;86.33;96840.78;30001;983;1876;-61
2021/11/05 02:35:49;;;;;;;;;;;;;;;4.47;86.19;96837.84;30001;983;1876;-61
2021/11/05 02:36:20;;;;;;;;;;;;;;;4.46;86.09;96838.91;30001;982;1858;-60
2021/11/05 02:36:51;;;;;;;;;;;;;;;4.47;86.39;96842.41;30001;983;1871;-60
2021/11/05 02:37:26;;;;;;;;;;;;;;;4.47;86.22;96840.53;30001;982;1876;-60
2021/11/05 02:37:58;;;;;;;;;;;;;;;4.46;86.38;96846.97;30001;982;1876;-60
2021/11/05 02:38:29;;;;;;;;;;;;;;;4.49;86.69;96843.78;30001;982;1876;-60
2021/11/05 02:39:00;;;;;;;;;;;;;;;4.48;86.38;96836.78;30001;983;1875;-59
2021/11/05 02:39:31;;;;;;;;;;;;;;;4.52;86.06;96842.41;30001;983;1875;-59
2021/11/05 02:40:02;;;;;;;;;;;;;;;4.50;85.91;96840.00;30001;983;1776;-60
2021/11/05 02:40:33;;;;;;;;;;;;;;;4.50;85.97;96842.72;30001;983;1858;-60
2021/11/05 02:41:04;;;;;;;;;;;;;;;4.49;86.39;96846.47;30001;983;1871;-61
2021/11/05 02:41:39;;;;;;;;;;;;;;;4.48;86.28;96844.84;30001;983;1876;-60
2021/11/05 02:42:10;;;;;;;;;;;;;;;4.49;86.29;96841.09;30001;983;1876;-60
2021/11/05 02:42:40;;;;;;;;;;;;;;;4.52;86.37;96847.78;30001;983;1876;-60
2021/11/05 02:43:11;;;;;;;;;;;;;;;4.52;86.01;96845.09;30001;983;1876;-60
2021/11/05 02:43:42;;;;;;;;;;;;;;;4.53;85.98;96852.09;30001;983;1876;-60
2021/11/05 02:44:13;;;;;;;;;;;;;;;4.52;86.04;96850.47;30001;982;1858;-60
2021/11/05 02:44:45;;;;;;;;;;;;;;;4.49;86.52;96849.16;30001;982;1872;-60
2021/11/05 02:45:15;;;;;;;;;;;;;;;4.48;86.54;96847.53;30001;982;1876;-59
2021/11/05 02:45:50;;;;;;;;;;;;;;;4.47;86.62;96853.97;30001;982;1876;-60
2021/11/05 02:46:21;;;;;;;;;;;;;;;4.47;86.46;96853.97;30001;983;1875;-60
2021/11/05 02:46:52;;;;;;;;;;;;;;;4.47;86.65;96851.28;30001;983;1875;-60
2021/11/05 02:47:25;;;;;;;;;;;;;;;4.47;86.56;96853.16;30001;983;1875;-60
2021/11/05 02:47:55;;;;;;;;;;;;;;;4.47;86.63;96851.28;30001;983;1875;-61
2021/11/05 02:48:27;;;;;;;;;;;;;;;4.47;86.99;96853.16;30001;983;1858;-60
2021/11/05 02:48:59;;;;;;;;;;;;;;;4.45;87.15;96855.28;30001;983;1871;-59
2021/11/05 02:49:30;;;;;;;;;;;;;;;4.43;87.32;96852.03;30001;983;1876;-60